Open Full Screen Window  High Contrast Mode
Wind Gusting 00 knots
06
April 21, 2015 5:45 AM EDT
Weather Information
Wind Direction
  220 °
Wind Speed
  06 kt (7 mph)
Wind Gust
  00 kt (0 mph)
Altimeter
29.81 in
Visibility
---
Temperature
06° C
43° F
Dewpoint
01° C
34° F
Humidity
71%
1hr Rain Fall
00.00 in.
24hr Rain Fall
00.10 in.
Sky Condition
Clear

METAR KI69 210945Z AUTO 22006KT CLR 06/01 A2981 RMK AO1 PWINO

*Background is not an actual portrayal of the airport.